Time;durP1;ratioP1;P1;durP2;ratioP2;P2;SDS_P1;SDS_P2;PMS_P1;PMS_P2;Temp;Humidity;BMP_temperature;BMP_pressure;BME280_temperature;BME280_humidity;BME280_pressure;Samples;Min_cycle;Max_cycle;Signal;HPM_P1;HPM_P2
2022/07/09 00:02:06;;;;;;;5.35;2.53;;;;;;;17.50;75.03;102572.47;5041726;28;20032;-76
2022/07/09 00:04:31;;;;;;;3.65;2.15;;;;;;;17.47;74.88;102569.34;5049291;28;20480;-76
2022/07/09 00:06:58;;;;;;;4.30;2.28;;;;;;;17.40;75.15;102569.16;5035396;28;20037;-76
2022/07/09 00:09:23;;;;;;;5.75;1.98;;;;;;;17.36;75.20;102564.41;5037803;28;20028;-76
2022/07/09 00:11:50;;;;;;;4.78;1.95;;;;;;;17.30;75.16;102560.59;5052202;28;20040;-75
2022/07/09 00:14:15;;;;;;;4.72;2.28;;;;;;;17.23;75.70;102559.59;5042475;28;20032;-76
2022/07/09 00:16:40;;;;;;;4.78;2.50;;;;;;;17.17;75.92;102561.03;5045275;28;20028;-76
2022/07/09 00:19:06;;;;;;;5.47;2.88;;;;;;;17.08;76.29;102551.50;5043744;28;20035;-76
2022/07/09 00:21:31;;;;;;;5.97;2.38;;;;;;;16.97;76.85;102554.38;5042844;28;20059;-76
2022/07/09 00:23:57;;;;;;;5.88;2.13;;;;;;;16.86;77.13;102548.44;5056791;28;20028;-76
2022/07/09 00:26:22;;;;;;;6.50;2.00;;;;;;;16.85;77.07;102552.03;5061230;28;20032;-76
2022/07/09 00:28:48;;;;;;;5.63;2.45;;;;;;;16.86;76.95;102552.88;5060851;28;20455;-76
2022/07/09 00:31:13;;;;;;;6.30;2.15;;;;;;;16.82;77.25;102549.75;5060000;28;20028;-76
2022/07/09 00:33:39;;;;;;;6.82;2.42;;;;;;;16.78;77.17;102548.34;5044163;28;20029;-76
2022/07/09 00:36:04;;;;;;;6.30;2.30;;;;;;;16.74;77.49;102547.00;5044269;28;20433;-76
2022/07/09 00:38:30;;;;;;;9.43;2.58;;;;;;;16.70;77.60;102540.44;5054412;28;20037;-76
2022/07/09 00:40:55;;;;;;;6.15;2.33;;;;;;;16.69;77.57;102550.13;5045145;28;20580;-76
2022/07/09 00:43:22;;;;;;;2.85;2.00;;;;;;;16.68;77.80;102545.03;5061235;28;20364;-76
2022/07/09 00:45:48;;;;;;;5.15;2.53;;;;;;;16.65;77.79;102542.69;5043481;28;20542;-75
2022/07/09 00:48:14;;;;;;;2.72;1.95;;;;;;;16.63;77.75;102537.66;5042767;28;20093;-76
2022/07/09 00:50:42;;;;;;;4.93;2.42;;;;;;;16.63;77.80;102544.66;5058274;28;20033;-76
2022/07/09 00:53:09;;;;;;;4.07;2.30;;;;;;;16.61;77.77;102539.56;5061827;28;20560;-76
2022/07/09 00:55:37;;;;;;;4.65;2.45;;;;;;;16.57;78.08;102550.50;5045343;28;20067;-76
2022/07/09 00:58:03;;;;;;;7.20;2.42;;;;;;;16.47;78.40;102534.91;5041422;28;20078;-76
2022/07/09 01:00:29;;;;;;;4.38;2.53;;;;;;;16.34;78.86;102543.16;5042953;28;20056;-76
2022/07/09 01:02:55;;;;;;;7.75;3.35;;;;;;;16.25;79.27;102544.06;5041111;28;20509;-76
2022/07/09 01:05:21;;;;;;;4.50;2.88;;;;;;;16.19;79.69;102537.63;5059616;28;20115;-75
2022/07/09 01:07:46;;;;;;;5.75;3.10;;;;;;;16.20;79.63;102533.22;5042518;28;20029;-76
2022/07/09 01:10:12;;;;;;;6.75;2.60;;;;;;;16.18;79.70;102538.63;5042387;28;20412;-76
2022/07/09 01:12:38;;;;;;;10.65;3.15;;;;;;;16.18;79.91;102536.00;5039991;28;20085;-76
2022/07/09 01:15:05;;;;;;;5.40;3.22;;;;;;;16.17;79.97;102536.16;5018993;28;20139;-76
2022/07/09 01:17:37;;;;;;;5.80;2.85;;;;;;;16.14;80.02;102543.31;5039229;28;20029;-76
2022/07/09 01:20:03;;;;;;;6.68;3.45;;;;;;;16.14;80.21;102543.31;5043082;28;20045;-76
2022/07/09 01:22:29;;;;;;;5.43;3.15;;;;;;;16.12;80.30;102533.97;5035932;28;20050;-76
2022/07/09 01:24:56;;;;;;;7.47;3.50;;;;;;;16.13;80.42;102539.06;5049623;28;20471;-75
2022/07/09 01:27:22;;;;;;;4.20;3.00;;;;;;;16.16;80.39;102532.69;5017382;28;20028;-75
2022/07/09 01:29:49;;;;;;;7.38;3.92;;;;;;;16.18;80.38;102530.75;5045320;28;20090;-76
2022/07/09 01:32:16;;;;;;;5.13;2.90;;;;;;;16.18;80.44;102528.16;5036085;28;20158;-76
2022/07/09 01:34:41;;;;;;;7.18;3.45;;;;;;;16.19;80.48;102529.78;5043383;28;20496;-76
2022/07/09 01:37:07;;;;;;;9.60;3.80;;;;;;;16.19;80.64;102528.97;5042605;28;20028;-76
2022/07/09 01:39:32;;;;;;;7.28;3.47;;;;;;;16.13;80.29;102523.34;5039565;28;20036;-75
2022/07/09 01:41:58;;;;;;;6.43;3.47;;;;;;;16.08;81.11;102524.78;5041000;28;20063;-75
2022/07/09 01:44:24;;;;;;;7.05;3.63;;;;;;;16.05;81.22;102523.28;5041273;28;20040;-76
2022/07/09 01:46:49;;;;;;;10.43;4.93;;;;;;;16.02;81.24;102520.16;5060525;28;20037;-75
2022/07/09 01:49:14;;;;;;;7.80;4.38;;;;;;;16.01;81.50;102516.72;5045628;28;20032;-76
2022/07/09 01:51:40;;;;;;;6.40;4.38;;;;;;;15.99;81.60;102516.03;5042628;28;20325;-76
2022/07/09 01:54:05;;;;;;;4.95;3.33;;;;;;;16.00;81.93;102514.25;5057160;28;20542;-76
2022/07/09 01:56:32;;;;;;;6.93;4.35;;;;;;;16.05;81.50;102514.59;5011661;28;20595;-75
2022/07/09 01:58:58;;;;;;;8.63;4.50;;;;;;;16.03;81.70;102512.16;5055324;28;20039;-76
2022/07/09 02:01:23;;;;;;;11.35;4.53;;;;;;;16.04;81.73;102511.16;5042613;28;20232;-76
2022/07/09 02:03:49;;;;;;;8.20;4.40;;;;;;;16.04;81.79;102512.97;5040756;28;20122;-76
2022/07/09 02:06:14;;;;;;;5.90;4.60;;;;;;;16.04;81.49;102510.34;5041687;28;20024;-75
2022/07/09 02:08:39;;;;;;;8.98;4.68;;;;;;;16.04;81.23;102505.94;5058644;28;20028;-75
2022/07/09 02:11:05;;;;;;;8.63;4.43;;;;;;;16.02;81.29;102507.88;5029494;28;20043;-76
2022/07/09 02:13:31;;;;;;;6.05;4.38;;;;;;;16.00;81.44;102498.56;5025694;28;20136;-75
2022/07/09 02:15:56;;;;;;;11.88;5.63;;;;;;;16.01;81.49;102501.03;5037365;28;20028;-76
2022/07/09 02:18:22;;;;;;;9.05;4.07;;;;;;;16.00;81.45;102496.75;5042585;28;20048;-75
2022/07/09 02:20:47;;;;;;;6.60;4.05;;;;;;;15.99;81.47;102496.91;5046396;28;20028;-76
2022/07/09 02:23:13;;;;;;;6.15;4.05;;;;;;;15.97;81.69;102491.81;5028488;28;20063;-75
2022/07/09 02:25:38;;;;;;;8.40;4.53;;;;;;;15.97;81.88;102494.44;5056009;28;20037;-76
2022/07/09 02:28:04;;;;;;;11.23;5.55;;;;;;;15.97;81.77;102494.44;5039268;28;20064;-76
2022/07/09 02:30:30;;;;;;;10.82;5.25;;;;;;;15.96;81.84;102492.78;5038536;28;20058;-76
2022/07/09 02:32:55;;;;;;;10.43;4.93;;;;;;;15.95;81.62;102489.38;5045144;28;20037;-75
2022/07/09 02:35:21;;;;;;;10.88;4.72;;;;;;;15.96;81.69;102493.63;5040294;28;20508;-76
2022/07/09 02:37:46;;;;;;;10.90;5.47;;;;;;;15.96;81.65;102490.19;5054050;28;20028;-76
2022/07/09 02:40:14;;;;;;;8.63;5.25;;;;;;;15.90;81.93;102488.19;5024574;28;20051;-75
2022/07/09 02:42:39;;;;;;;7.95;4.82;;;;;;;15.83;82.18;102494.97;5056329;28;20032;-76
2022/07/09 02:45:05;;;;;;;10.20;5.05;;;;;;;15.79;82.63;102493.63;5024831;28;20464;-75
2022/07/09 02:47:31;;;;;;;8.57;5.28;;;;;;;15.76;82.06;102492.97;5041598;28;20037;-76
2022/07/09 02:49:56;;;;;;;7.78;5.05;;;;;;;15.77;81.72;102493.78;5046731;28;20118;-76
2022/07/09 02:52:22;;;;;;;7.10;5.43;;;;;;;15.77;82.29;102491.16;5045753;28;20036;-76
2022/07/09 02:54:47;;;;;;;11.13;5.13;;;;;;;15.76;82.12;102502.56;5044399;28;20021;-75
2022/07/09 02:57:13;;;;;;;12.07;4.97;;;;;;;15.76;82.39;102497.34;5040373;28;20025;-76
2022/07/09 02:59:38;;;;;;;6.47;4.78;;;;;;;15.74;82.23;102496.69;5041680;28;20035;-76
2022/07/09 03:02:04;;;;;;;8.02;5.68;;;;;;;15.73;82.45;102493.25;5058823;28;20041;-76
2022/07/09 03:04:31;;;;;;;10.30;6.03;;;;;;;15.72;82.63;102493.34;5054755;28;20036;-75
2022/07/09 03:06:56;;;;;;;13.90;7.05;;;;;;;15.67;83.31;102492.97;5040119;28;20040;-76
2022/07/09 03:09:22;;;;;;;10.00;7.00;;;;;;;15.62;83.59;102492.63;5051469;28;20040;-76
2022/07/09 03:11:47;;;;;;;11.48;7.03;;;;;;;15.58;84.33;102492.91;5041115;28;20033;-75
2022/07/09 03:14:13;;;;;;;12.02;8.05;;;;;;;15.57;84.33;102491.25;5037162;28;20032;-76
2022/07/09 03:16:38;;;;;;;13.40;7.55;;;;;;;15.56;84.42;102489.63;5038076;28;20037;-75
2022/07/09 03:19:04;;;;;;;13.50;8.45;;;;;;;15.54;84.47;102475.88;5043410;28;20124;-75
2022/07/09 03:21:30;;;;;;;11.77;7.78;;;;;;;15.56;84.50;102483.56;5051637;28;20039;-75
2022/07/09 03:23:55;;;;;;;15.60;9.20;;;;;;;15.57;84.99;102477.34;5040737;28;20109;-76
2022/07/09 03:26:21;;;;;;;13.93;9.02;;;;;;;15.54;85.36;102472.44;5016775;28;20048;-75
2022/07/09 03:28:46;;;;;;;13.77;7.95;;;;;;;15.53;85.46;102476.03;5041885;28;20032;-75
2022/07/09 03:31:12;;;;;;;12.40;8.70;;;;;;;15.51;85.37;102476.16;5057076;28;20094;-75
2022/07/09 03:33:37;;;;;;;10.98;7.93;;;;;;;15.51;85.44;102472.72;5037791;28;20037;-75
2022/07/09 03:36:03;;;;;;;12.77;8.48;;;;;;;15.50;85.39;102476.31;5060137;28;20279;-76
2022/07/09 03:38:29;;;;;;;10.68;8.25;;;;;;;15.49;85.29;102472.06;5038763;28;20032;-76
2022/07/09 03:40:54;;;;;;;13.40;8.10;;;;;;;15.47;85.10;102466.16;5052654;28;20039;-76
2022/07/09 03:43:20;;;;;;;16.45;7.78;;;;;;;15.48;84.90;102479.09;5048088;28;20024;-76
2022/07/09 03:45:45;;;;;;;10.98;8.20;;;;;;;15.45;84.46;102468.09;5059165;28;20483;-76
2022/07/09 03:48:11;;;;;;;12.60;7.60;;;;;;;15.40;84.47;102468.53;5060989;28;20028;-76
2022/07/09 03:50:36;;;;;;;15.93;8.18;;;;;;;15.36;84.46;102467.19;5060790;28;20035;-75
2022/07/09 03:53:01;;;;;;;14.40;7.32;;;;;;;15.33;84.13;102472.69;5049791;28;20089;-76
2022/07/09 03:55:27;;;;;;;11.85;6.93;;;;;;;15.33;83.86;102476.16;5053094;28;20029;-76
2022/07/09 03:57:52;;;;;;;11.00;7.53;;;;;;;15.36;83.64;102475.03;5043368;28;20028;-75
2022/07/09 04:00:18;;;;;;;13.70;7.63;;;;;;;15.37;83.57;102479.28;5043467;28;20751;-76
2022/07/09 04:02:43;;;;;;;11.00;7.03;;;;;;;15.40;83.71;102467.72;5043012;28;20385;-75
2022/07/09 04:05:09;;;;;;;13.43;7.65;;;;;;;15.39;84.08;102472.13;5043399;28;20119;-75
2022/07/09 04:07:35;;;;;;;13.15;7.97;;;;;;;15.38;84.57;102475.69;5042900;28;20094;-76
2022/07/09 04:10:00;;;;;;;13.95;8.75;;;;;;;15.40;84.56;102483.41;5045004;28;20039;-75
2022/07/09 04:12:26;;;;;;;12.38;8.07;;;;;;;15.38;84.62;102481.75;5041773;28;20424;-76
2022/07/09 04:14:52;;;;;;;13.43;8.40;;;;;;;15.31;84.83;102482.47;5062222;28;20044;-76
2022/07/09 04:17:17;;;;;;;16.65;8.15;;;;;;;15.27;84.98;102487.16;5046412;28;20169;-76
2022/07/09 04:19:43;;;;;;;12.05;8.10;;;;;;;15.25;85.11;102475.22;5063413;28;20091;-76
2022/07/09 04:22:08;;;;;;;12.77;9.15;;;;;;;15.22;85.40;102478.13;5065864;28;20031;-76
2022/07/09 04:24:34;;;;;;;19.08;8.32;;;;;;;15.22;85.99;102478.13;5060192;28;20453;-76
2022/07/09 04:27:00;;;;;;;16.45;9.32;;;;;;;15.22;86.59;102478.13;5046347;28;20037;-76
2022/07/09 04:29:25;;;;;;;12.52;9.00;;;;;;;15.23;86.88;102472.75;5057410;28;20349;-75
2022/07/09 04:31:50;;;;;;;15.10;8.60;;;;;;;15.29;86.67;102471.34;5026234;28;20024;-76
2022/07/09 04:34:16;;;;;;;12.50;9.27;;;;;;;15.33;86.47;102470.94;5057951;28;20421;-76
2022/07/09 04:36:41;;;;;;;15.25;10.02;;;;;;;15.37;86.88;102474.88;5045083;28;20086;-75
2022/07/09 04:39:07;;;;;;;13.38;9.73;;;;;;;15.41;87.52;102482.41;5024813;28;20405;-75
2022/07/09 04:41:34;;;;;;;13.60;10.57;;;;;;;15.46;87.57;102488.03;5039372;28;20402;-76
2022/07/09 04:43:59;;;;;;;15.18;10.15;;;;;;;15.50;87.46;102487.59;5039967;28;20041;-76
2022/07/09 04:46:26;;;;;;;24.27;14.02;;;;;;;15.58;87.70;102492.09;5028860;28;20036;-75
2022/07/09 04:48:52;;;;;;;15.43;10.95;;;;;;;15.60;88.47;102492.75;5055229;28;20033;-76
2022/07/09 04:51:18;;;;;;;18.90;12.93;;;;;;;15.63;89.16;102496.84;5039246;28;20036;-75
2022/07/09 04:53:43;;;;;;;24.00;13.50;;;;;;;15.70;89.73;102503.97;5038192;28;20070;-75
2022/07/09 04:56:08;;;;;;;19.77;13.82;;;;;;;15.85;90.17;102503.50;5056088;28;20495;-76
2022/07/09 04:58:34;;;;;;;20.33;14.93;;;;;;;15.82;90.34;102499.34;5056118;28;20037;-75
2022/07/09 05:01:00;;;;;;;27.42;16.38;;;;;;;15.94;90.31;102495.56;5050004;28;20111;-76
2022/07/09 05:03:25;;;;;;;26.23;15.68;;;;;;;15.99;89.93;102497.72;5057426;28;20044;-74
2022/07/09 05:05:51;;;;;;;24.55;16.40;;;;;;;16.07;89.98;102507.44;5055546;28;20028;-75
2022/07/09 05:08:18;;;;;;;21.92;14.77;;;;;;;16.11;89.84;102501.75;5043007;28;20052;-75
2022/07/09 05:10:44;;;;;;;23.98;16.25;;;;;;;16.17;89.50;102499.50;5038124;28;20040;-75
2022/07/09 05:13:10;;;;;;;22.80;15.50;;;;;;;16.22;89.51;102505.09;5051346;28;20034;-76
2022/07/09 05:15:35;;;;;;;26.13;17.13;;;;;;;16.24;89.85;102495.31;5044641;28;20055;-76
2022/07/09 05:18:01;;;;;;;25.90;16.98;;;;;;;16.34;89.45;102489.00;5044592;28;20028;-74
2022/07/09 05:20:26;;;;;;;25.48;15.32;;;;;;;16.40;89.38;102486.75;5060175;28;20036;-76
2022/07/09 05:22:52;;;;;;;21.40;14.68;;;;;;;16.48;88.97;102492.88;5062147;28;20024;-75
2022/07/09 05:25:18;;;;;;;23.70;13.43;;;;;;;16.58;88.75;102484.09;5047858;28;20035;-75
2022/07/09 05:27:45;;;;;;;25.00;16.85;;;;;;;16.72;88.08;102488.72;5047152;28;21286;-76
2022/07/09 05:30:14;;;;;;;27.85;16.80;;;;;;;16.90;87.30;102497.38;5047914;28;20527;-74
2022/07/09 05:32:39;;;;;;;25.23;16.02;;;;;;;17.02;87.00;102495.28;5037752;28;20039;-76
2022/07/09 05:35:05;;;;;;;21.83;13.98;;;;;;;17.18;86.43;102485.84;5057183;28;20381;-76
2022/07/09 05:37:31;;;;;;;21.50;14.25;;;;;;;17.30;85.78;102488.00;5051576;28;20039;-74
2022/07/09 05:39:57;;;;;;;27.33;17.20;;;;;;;17.43;84.76;102486.75;5025772;28;20066;-76
2022/07/09 05:42:23;;;;;;;23.98;15.27;;;;;;;17.65;84.35;102490.53;5043355;28;20028;-76
2022/07/09 05:44:49;;;;;;;20.70;13.55;;;;;;;17.80;83.13;102495.97;5042349;28;20562;-75
2022/07/09 05:47:15;;;;;;;18.20;12.75;;;;;;;17.92;82.41;102489.47;5041012;28;20085;-76
2022/07/09 05:49:40;;;;;;;22.20;13.55;;;;;;;18.05;81.51;102494.22;5060329;28;20043;-75
2022/07/09 05:52:06;;;;;;;21.30;13.45;;;;;;;18.24;80.77;102499.13;5042572;28;20032;-75
2022/07/09 05:54:32;;;;;;;21.15;13.25;;;;;;;18.39;80.43;102494.03;5041713;28;20037;-76
2022/07/09 05:56:57;;;;;;;18.52;10.60;;;;;;;18.44;80.34;102485.63;5039718;28;20020;-76
2022/07/09 05:59:22;;;;;;;18.88;11.63;;;;;;;18.45;80.17;102482.03;5059015;28;20035;-76
2022/07/09 06:01:48;;;;;;;16.50;11.55;;;;;;;18.57;79.66;102483.31;5023791;28;20027;-76
2022/07/09 06:04:13;;;;;;;20.85;11.98;;;;;;;18.70;79.48;102482.78;5058359;28;20032;-76
2022/07/09 06:06:39;;;;;;;19.42;11.77;;;;;;;19.08;77.71;102472.50;5041855;28;20033;-76
2022/07/09 06:09:05;;;;;;;19.15;11.00;;;;;;;19.31;76.35;102476.94;5043454;28;20159;-76
2022/07/09 06:11:30;;;;;;;16.25;10.15;;;;;;;19.45;75.46;102471.75;5056120;28;20028;-76
2022/07/09 06:13:56;;;;;;;16.13;9.95;;;;;;;19.73;75.08;102471.28;5055754;28;20374;-76
2022/07/09 06:16:21;;;;;;;14.45;10.55;;;;;;;19.74;72.95;102464.19;5052213;28;20078;-76
2022/07/09 06:18:46;;;;;;;15.38;9.05;;;;;;;19.53;73.38;102470.88;5054361;28;20551;-76
2022/07/09 06:21:12;;;;;;;12.30;8.05;;;;;;;19.43;73.98;102462.41;5055228;28;20477;-76
2022/07/09 06:23:38;;;;;;;13.60;7.97;;;;;;;19.39;74.26;102461.94;5055039;28;20041;-76
2022/07/09 06:26:03;;;;;;;14.07;8.20;;;;;;;19.43;74.52;102455.34;5042460;28;20032;-76
2022/07/09 06:28:29;;;;;;;10.32;6.57;;;;;;;19.41;74.88;102467.84;5037686;28;20051;-76
2022/07/09 06:30:54;;;;;;;14.25;8.85;;;;;;;20.05;73.43;102453.56;5057299;28;20559;-77
2022/07/09 06:33:20;;;;;;;12.23;8.32;;;;;;;20.75;70.81;102454.16;5039426;28;22549;-75
2022/07/09 06:35:45;;;;;;;13.68;9.23;;;;;;;21.21;68.07;102453.91;5058781;28;20520;-76
2022/07/09 06:38:11;;;;;;;11.07;7.15;;;;;;;21.63;65.94;102449.66;5044818;28;20020;-77
2022/07/09 06:40:36;;;;;;;11.85;7.40;;;;;;;21.95;64.74;102445.63;5037432;28;20107;-76
2022/07/09 06:43:02;;;;;;;8.82;6.22;;;;;;;22.05;64.61;102441.84;5039262;28;20113;-76
2022/07/09 06:45:42;;;;;;;8.95;5.00;;;;;;;22.36;63.67;102438.81;5025289;28;20033;-77
2022/07/09 06:48:07;;;;;;;6.57;4.65;;;;;;;22.57;61.84;102456.41;5052290;28;20090;-76
2022/07/09 06:50:33;;;;;;;6.05;3.83;;;;;;;22.73;60.50;102464.00;5053871;28;20121;-76
2022/07/09 06:52:58;;;;;;;4.53;3.08;;;;;;;22.95;58.68;102461.22;5040725;28;20040;-76
2022/07/09 06:55:24;;;;;;;8.13;3.45;;;;;;;22.64;58.65;102464.34;5028046;28;20036;-76
2022/07/09 06:57:49;;;;;;;7.45;4.10;;;;;;;22.48;59.64;102465.50;5053876;28;20047;-76
2022/07/09 07:00:15;;;;;;;5.35;3.53;;;;;;;22.54;59.32;102464.72;5040934;28;20106;-76
2022/07/09 07:02:40;;;;;;;5.00;3.67;;;;;;;22.54;58.92;102468.16;5052044;28;20542;-75
2022/07/09 07:05:06;;;;;;;4.85;2.88;;;;;;;22.88;57.29;102468.31;5034407;28;20044;-76
2022/07/09 07:07:32;;;;;;;4.35;2.40;;;;;;;23.06;56.07;102479.19;5042767;28;20025;-76
2022/07/09 07:09:57;;;;;;;2.97;2.00;;;;;;;23.24;54.70;102469.88;5043586;28;20820;-76
2022/07/09 07:12:23;;;;;;;4.22;1.95;;;;;;;23.46;53.41;102465.25;5053658;28;20492;-76
2022/07/09 07:14:48;;;;;;;4.65;2.20;;;;;;;23.51;53.96;102468.09;5056934;28;20501;-78
2022/07/09 07:17:14;;;;;;;2.58;1.92;;;;;;;23.66;53.02;102460.78;5043797;28;20031;-76
2022/07/09 07:19:39;;;;;;;3.95;1.98;;;;;;;23.45;54.32;102460.94;5062324;28;20462;-77
2022/07/09 07:22:05;;;;;;;3.70;2.25;;;;;;;23.11;55.62;102468.00;5042889;28;20501;-76
2022/07/09 07:24:30;;;;;;;3.40;1.67;;;;;;;23.18;55.21;102466.22;5060940;28;20489;-77
2022/07/09 07:26:56;;;;;;;6.70;2.65;;;;;;;23.65;53.62;102463.63;5046474;28;20074;-77
2022/07/09 07:29:22;;;;;;;3.38;2.03;;;;;;;23.63;53.99;102463.81;5060701;28;20032;-77
2022/07/09 07:31:49;;;;;;;2.75;1.70;;;;;;;23.84;53.08;102464.66;5061057;28;20110;-77
2022/07/09 07:34:15;;;;;;;2.60;1.50;;;;;;;24.38;51.66;102452.16;5061251;28;20321;-77
2022/07/09 07:36:40;;;;;;;4.47;1.55;;;;;;;24.83;51.56;102452.22;5062971;28;21428;-77
2022/07/09 07:39:06;;;;;;;4.20;2.10;;;;;;;25.31;49.80;102448.28;5042203;28;20025;-77
2022/07/09 07:41:31;;;;;;;3.50;2.28;;;;;;;25.18;49.23;102446.50;5061762;28;20512;-77
2022/07/09 07:43:56;;;;;;;6.10;1.88;;;;;;;24.63;50.76;102460.25;5052615;28;20045;-77
2022/07/09 07:46:22;;;;;;;2.08;1.77;;;;;;;24.14;51.75;102458.94;5041679;28;20040;-77
2022/07/09 07:48:47;;;;;;;2.60;1.83;;;;;;;23.87;52.08;102461.63;5047386;28;20378;-77
2022/07/09 07:51:13;;;;;;;2.45;1.40;;;;;;;23.71;53.15;102460.16;5060508;28;20040;-77
2022/07/09 07:53:38;;;;;;;3.92;1.73;;;;;;;23.75;52.98;102458.72;5055949;28;20405;-75
2022/07/09 07:56:05;;;;;;;4.47;2.05;;;;;;;23.80;53.01;102466.91;5061401;28;20044;-75
2022/07/09 07:58:31;;;;;;;3.45;1.90;;;;;;;23.82;53.08;102453.47;5063835;28;20435;-75
2022/07/09 08:00:56;;;;;;;2.20;1.33;;;;;;;24.27;52.82;102448.31;5042718;28;20036;-75
2022/07/09 08:03:22;;;;;;;4.30;2.60;;;;;;;24.53;51.63;102447.44;5044076;28;20041;-74
2022/07/09 08:05:47;;;;;;;4.75;2.42;;;;;;;24.85;50.80;102450.16;5051466;28;20045;-75
2022/07/09 08:08:13;;;;;;;4.72;2.67;;;;;;;24.53;50.83;102447.44;5059620;28;20043;-74
2022/07/09 08:10:38;;;;;;;6.20;1.58;;;;;;;24.72;51.37;102440.44;5055304;28;20127;-76
2022/07/09 08:13:04;;;;;;;2.80;1.85;;;;;;;25.52;48.84;102439.94;5061108;28;21022;-76
2022/07/09 08:15:29;;;;;;;2.85;1.67;;;;;;;25.80;48.23;102438.69;5060185;28;20465;-76
2022/07/09 08:17:55;;;;;;;4.00;1.75;;;;;;;26.02;46.55;102437.28;5043518;28;20033;-75
2022/07/09 08:20:20;;;;;;;4.97;2.35;;;;;;;26.30;46.33;102433.31;5062472;28;20033;-75
2022/07/09 08:22:46;;;;;;;3.15;2.25;;;;;;;26.48;45.82;102432.47;5030314;28;20033;-75
2022/07/09 08:25:13;;;;;;;4.53;2.65;;;;;;;26.75;45.48;102445.47;5047515;28;20112;-75
2022/07/09 08:27:39;;;;;;;5.70;2.30;;;;;;;26.32;46.22;102435.75;5058495;28;20577;-75
2022/07/09 08:30:05;;;;;;;5.18;2.10;;;;;;;25.97;46.87;102441.63;5048683;28;20090;-75
2022/07/09 08:32:30;;;;;;;5.20;2.30;;;;;;;25.33;48.41;102436.41;5043238;28;20044;-75
2022/07/09 08:34:56;;;;;;;3.67;2.40;;;;;;;24.95;49.49;102442.53;5047251;28;20036;-76
2022/07/09 08:37:21;;;;;;;3.78;2.58;;;;;;;24.83;50.23;102425.69;5045066;28;20033;-75
2022/07/09 08:39:47;;;;;;;11.30;3.08;;;;;;;24.85;50.28;102435.06;5059437;28;20028;-75
2022/07/09 08:42:12;;;;;;;4.15;1.88;;;;;;;25.17;49.81;102421.81;5057529;28;20036;-75
2022/07/09 08:44:42;;;;;;;6.65;2.28;;;;;;;25.00;50.29;102426.81;5037812;28;20037;-76
2022/07/09 08:47:10;;;;;;;3.53;1.92;;;;;;;24.63;50.82;102423.94;5035052;28;20349;-75
2022/07/09 08:49:37;;;;;;;3.47;1.95;;;;;;;24.51;51.27;102411.53;5041991;28;20443;-75
2022/07/09 08:52:03;;;;;;;3.83;2.53;;;;;;;25.01;51.20;102404.53;5057621;28;20029;-76
2022/07/09 08:54:30;;;;;;;3.47;2.30;;;;;;;25.90;48.15;102393.00;5043344;28;20497;-75
2022/07/09 08:56:56;;;;;;;11.77;2.15;;;;;;;26.08;47.18;102402.88;5054299;28;20047;-76
2022/07/09 08:59:21;;;;;;;4.72;1.33;;;;;;;26.52;45.91;102388.44;5044185;28;20040;-75
2022/07/09 09:01:47;;;;;;;1.85;1.35;;;;;;;26.69;46.33;102390.50;5059588;28;20033;-76
2022/07/09 09:04:12;;;;;;;3.63;1.20;;;;;;;26.43;47.35;102381.81;5064564;28;20028;-74
2022/07/09 09:06:39;;;;;;;3.33;1.13;;;;;;;26.97;44.80;102390.72;5054094;28;20334;-74
2022/07/09 09:09:07;;;;;;;2.20;0.90;;;;;;;26.95;44.06;102378.66;5044389;28;20167;-75
2022/07/09 09:11:35;;;;;;;4.20;1.00;;;;;;;26.72;44.06;102384.72;5044498;28;20118;-75
2022/07/09 09:14:01;;;;;;;3.75;0.93;;;;;;;27.46;43.39;102373.78;5040510;28;20448;-76
2022/07/09 09:16:26;;;;;;;7.22;1.98;;;;;;;27.59;42.22;102370.88;5040431;28;20025;-76
2022/07/09 09:18:52;;;;;;;2.35;1.05;;;;;;;27.71;42.71;102369.00;5059575;28;20480;-75
2022/07/09 09:21:20;;;;;;;2.30;1.13;;;;;;;27.44;42.52;102370.53;5045478;28;20152;-75
2022/07/09 09:23:48;;;;;;;1.25;0.70;;;;;;;27.16;43.13;102369.31;5043709;28;20039;-76
2022/07/09 09:26:15;;;;;;;1.52;0.70;;;;;;;27.46;42.33;102360.44;5044903;28;20035;-75
2022/07/09 09:29:01;;;;;;;0.80;0.60;;;;;;;27.72;43.31;102367.94;5049431;28;20503;-76
2022/07/09 09:31:28;;;;;;;1.63;0.73;;;;;;;27.60;43.66;102369.03;5036724;28;20044;-73
2022/07/09 09:33:56;;;;;;;1.92;0.85;;;;;;;27.34;43.00;102369.25;5061378;28;20040;-75
2022/07/09 09:36:27;;;;;;;2.28;0.70;;;;;;;26.93;42.69;102368.22;5024512;28;20025;-75
2022/07/09 09:38:53;;;;;;;1.48;1.08;;;;;;;26.88;42.85;102365.47;5045866;28;20029;-76
2022/07/09 09:41:22;;;;;;;2.67;0.85;;;;;;;26.74;43.75;102372.81;5060986;28;20473;-75
2022/07/09 09:43:50;;;;;;;2.25;0.80;;;;;;;26.78;43.52;102373.16;5038194;28;20127;-74
2022/07/09 09:46:16;;;;;;;1.58;0.70;;;;;;;26.78;43.75;102363.34;5046534;28;20071;-76
2022/07/09 09:48:42;;;;;;;0.88;0.88;;;;;;;27.00;44.10;102358.31;5040353;28;20032;-76
2022/07/09 09:51:10;;;;;;;2.67;0.80;;;;;;;27.04;43.96;102357.84;5057936;28;20049;-75
2022/07/09 09:53:38;;;;;;;1.55;1.00;;;;;;;27.08;43.61;102348.38;5044362;28;20035;-75
2022/07/09 09:56:04;;;;;;;2.15;0.70;;;;;;;27.08;44.54;102351.03;5038594;28;20150;-75
2022/07/09 09:58:31;;;;;;;4.03;0.80;;;;;;;27.09;43.67;102353.47;5024786;28;20174;-75
2022/07/09 10:00:56;;;;;;;1.95;1.20;;;;;;;27.30;43.76;102349.47;5057253;28;20029;-75
2022/07/09 10:03:22;;;;;;;7.72;1.80;;;;;;;27.33;43.22;102356.16;5056856;28;20035;-76
2022/07/09 10:05:50;;;;;;;1.92;0.70;;;;;;;27.57;43.21;102349.78;5041300;28;20165;-75
2022/07/09 10:08:16;;;;;;;3.47;1.08;;;;;;;27.54;43.12;102341.47;5055635;28;20025;-76
2022/07/09 10:10:50;;;;;;;2.88;1.08;;;;;;;27.37;43.96;102352.81;5062048;28;20051;-75
2022/07/09 10:13:22;;;;;;;3.50;1.63;;;;;;;26.87;44.18;102347.06;5056933;28;20051;-75
2022/07/09 10:15:49;;;;;;;1.23;0.87;;;;;;;26.68;44.47;102352.44;5038216;28;20033;-73
2022/07/09 10:18:18;;;;;;;1.40;0.98;;;;;;;26.48;43.96;102341.25;5042752;28;20039;-75
2022/07/09 10:20:44;;;;;;;5.00;1.88;;;;;;;26.37;45.00;102334.84;5024971;28;20036;-75
2022/07/09 10:23:22;;;;;;;1.27;0.95;;;;;;;26.59;44.99;102333.31;5059897;28;20147;-75
2022/07/09 10:25:52;;;;;;;3.58;0.88;;;;;;;26.90;44.93;102327.97;5042325;28;20028;-76
2022/07/09 10:28:19;;;;;;;1.95;0.93;;;;;;;26.82;45.87;102326.44;5056765;28;20042;-75
2022/07/09 10:30:45;;;;;;;1.88;1.02;;;;;;;26.76;46.06;102333.50;5060831;28;20460;-76
2022/07/09 10:33:13;;;;;;;3.55;1.10;;;;;;;26.92;44.38;102324.06;5040888;28;20024;-75
2022/07/09 10:35:40;;;;;;;1.00;0.90;;;;;;;27.07;44.39;102330.75;5055419;28;20024;-79
2022/07/09 10:38:06;;;;;;;2.78;1.30;;;;;;;26.85;44.29;102325.19;5043901;28;20024;-74
2022/07/09 10:40:42;;;;;;;6.32;1.23;;;;;;;27.00;44.86;102328.22;5059757;28;20532;-76
2022/07/09 10:43:09;;;;;;;1.60;1.20;;;;;;;26.94;44.81;102316.66;5039256;28;20481;-75
2022/07/09 10:45:34;;;;;;;1.35;1.10;;;;;;;27.30;45.48;102309.53;5040269;28;20082;-76
2022/07/09 10:48:01;;;;;;;2.25;1.45;;;;;;;27.31;44.76;102305.81;5039276;28;20494;-74
2022/07/09 10:50:29;;;;;;;9.52;1.77;;;;;;;27.17;44.49;102312.38;5055295;28;20041;-74
2022/07/09 10:52:56;;;;;;;5.63;1.50;;;;;;;27.10;45.12;102304.50;5059488;28;20043;-75
2022/07/09 10:55:24;;;;;;;3.75;2.13;;;;;;;27.44;44.79;102304.75;5059086;28;20028;-75
2022/07/09 10:57:51;;;;;;;2.00;1.30;;;;;;;27.71;44.34;102298.94;5053484;28;20025;-74
2022/07/09 11:00:18;;;;;;;3.92;1.55;;;;;;;27.89;43.46;102295.31;5055553;28;20037;-74
2022/07/09 11:03:02;;;;;;;3.55;1.27;;;;;;;27.58;44.76;102295.47;5039609;28;20036;-75
2022/07/09 11:05:29;;;;;;;4.15;1.88;;;;;;;27.34;44.39;102294.69;5040071;28;20037;-75
2022/07/09 11:07:56;;;;;;;4.28;1.60;;;;;;;27.18;44.39;102290.88;5055121;28;20032;-76
2022/07/09 11:10:21;;;;;;;5.40;1.38;;;;;;;27.19;44.97;102291.66;5042343;28;20074;-73
2022/07/09 11:12:48;;;;;;;5.53;1.60;;;;;;;26.84;44.86;102281.78;5035878;28;20032;-75
2022/07/09 11:15:20;;;;;;;3.10;1.92;;;;;;;26.62;45.44;102297.50;5042251;28;20040;-76
2022/07/09 11:17:59;;;;;;;5.75;2.10;;;;;;;26.98;44.59;102295.72;5049706;28;20032;-74